Time;durP1;ratioP1;P1;durP2;ratioP2;P2;SDS_P1;SDS_P2;PMS_P1;PMS_P2;Temp;Humidity;BMP_temperature;BMP_pressure;BME280_temperature;BME280_humidity;BME280_pressure;Samples;Min_cycle;Max_cycle;Signal;HPM_P1;HPM_P2
2021/08/28 00:02:12;;;;;;;4.47;3.93;;;;;;;;;;5017602;28;20181;-88
2021/08/28 00:04:38;;;;;;;7.83;4.53;;;;;;;;;;5017618;28;20231;-88
2021/08/28 00:07:04;;;;;;;4.70;3.70;;;;;;;;;;5017125;28;20201;-88
2021/08/28 00:09:30;;;;;;;6.63;4.27;;;;;;;;;;5016376;28;20189;-87
2021/08/28 00:11:57;;;;;;;6.33;4.90;;;;;;;;;;5018182;28;20590;-88
2021/08/28 00:14:24;;;;;;;5.80;4.20;;;;;;;;;;5017350;28;20196;-88
2021/08/28 00:16:50;;;;;;;5.97;4.20;;;;;;;;;;5017511;28;20271;-88
2021/08/28 00:19:16;;;;;;;7.17;4.30;;;;;;;;;;5017140;28;20224;-88
2021/08/28 00:21:42;;;;;;;4.53;3.90;;;;;;;;;;5033964;28;20215;-88
2021/08/28 00:24:08;;;;;;;5.93;3.83;;;;;;;;;;5017348;28;20231;-89
2021/08/28 00:26:34;;;;;;;5.93;4.43;;;;;;;;;;5035715;28;20623;-88
2021/08/28 00:29:00;;;;;;;7.63;3.70;;;;;;;;;;5018154;28;20173;-89
2021/08/28 00:31:26;;;;;;;6.20;4.23;;;;;;;;;;5020268;28;20185;-88
2021/08/28 00:33:52;;;;;;;5.60;3.97;;;;;;;;;;5018346;28;20625;-89
2021/08/28 00:36:18;;;;;;;7.23;4.37;;;;;;;;;;5015848;28;20181;-88
2021/08/28 00:38:44;;;;;;;7.00;4.00;;;;;;;;;;5003760;28;20198;-88
2021/08/28 00:41:10;;;;;;;5.43;3.83;;;;;;;;;;5018291;28;20184;-88
2021/08/28 00:43:36;;;;;;;6.67;3.77;;;;;;;;;;5017566;28;20178;-88
2021/08/28 00:46:02;;;;;;;3.97;3.67;;;;;;;;;;5017444;28;20178;-88
2021/08/28 00:48:28;;;;;;;6.13;4.00;;;;;;;;;;5017375;28;20173;-88
2021/08/28 00:50:54;;;;;;;6.67;3.60;;;;;;;;;;5016644;28;20192;-88
2021/08/28 00:53:20;;;;;;;5.53;3.73;;;;;;;;;;5015797;28;20185;-88
2021/08/28 00:55:47;;;;;;;5.27;3.97;;;;;;;;;;5016158;28;20186;-88
2021/08/28 00:58:13;;;;;;;5.50;3.70;;;;;;;;;;5017037;28;20216;-88
2021/08/28 01:00:42;;;;;;;7.30;4.37;;;;;;;;;;5027777;28;20218;-88
2021/08/28 01:03:08;;;;;;;7.50;3.70;;;;;;;;;;5024874;28;20178;-88
2021/08/28 01:05:41;;;;;;;6.83;4.27;;;;;;;;;;5023721;28;20275;-88
2021/08/28 01:08:20;;;;;;;7.30;4.20;;;;;;;;;;5017812;28;20202;-89
2021/08/28 01:10:53;;;;;;;9.60;4.90;;;;;;;;;;5028484;28;20201;-89
2021/08/28 01:13:19;;;;;;;7.20;5.13;;;;;;;;;;4998829;28;20178;-89
2021/08/28 01:15:48;;;;;;;11.30;5.50;;;;;;;;;;5029268;28;20241;-89
2021/08/28 01:18:15;;;;;;;8.83;5.17;;;;;;;;;;5017228;28;20203;-89
2021/08/28 01:20:50;;;;;;;5.90;4.93;;;;;;;;;;5015228;28;20192;-89
2021/08/28 01:23:16;;;;;;;8.90;4.90;;;;;;;;;;5001150;28;20187;-89
2021/08/28 01:25:43;;;;;;;8.77;5.20;;;;;;;;;;5015637;28;20283;-89
2021/08/28 01:28:10;;;;;;;7.83;4.63;;;;;;;;;;5015464;28;20220;-89
2021/08/28 01:30:39;;;;;;;10.63;6.00;;;;;;;;;;5016780;28;20222;-89
2021/08/28 01:33:06;;;;;;;7.87;6.73;;;;;;;;;;5017559;28;20182;-89
2021/08/28 01:35:33;;;;;;;7.90;6.33;;;;;;;;;;5031751;28;20214;-88
2021/08/28 01:38:00;;;;;;;11.23;7.50;;;;;;;;;;5015925;28;20533;-89
2021/08/28 01:40:27;;;;;;;8.60;7.07;;;;;;;;;;5016714;28;20216;-89
2021/08/28 01:42:54;;;;;;;10.83;7.20;;;;;;;;;;5015821;28;20637;-89
2021/08/28 01:45:25;;;;;;;10.17;7.67;;;;;;;;;;5011644;28;20265;-89
2021/08/28 01:47:52;;;;;;;11.50;8.00;;;;;;;;;;5014262;28;20535;-89
2021/08/28 01:50:20;;;;;;;10.57;8.43;;;;;;;;;;5017069;28;20630;-89
2021/08/28 01:52:47;;;;;;;11.77;9.20;;;;;;;;;;5015879;28;20626;-89
2021/08/28 01:55:13;;;;;;;11.37;8.77;;;;;;;;;;5014633;28;20179;-89
2021/08/28 01:57:39;;;;;;;13.83;9.57;;;;;;;;;;5015370;28;20174;-89
2021/08/28 02:00:05;;;;;;;12.43;10.40;;;;;;;;;;5014903;28;20622;-89
2021/08/28 02:02:32;;;;;;;13.53;10.67;;;;;;;;;;5014590;28;20175;-89
2021/08/28 02:04:58;;;;;;;13.73;10.47;;;;;;;;;;5013544;28;20525;-89
2021/08/28 02:07:27;;;;;;;11.80;10.20;;;;;;;;;;5014837;28;20190;-89
2021/08/28 02:09:56;;;;;;;12.67;11.47;;;;;;;;;;5017801;28;20272;-89
2021/08/28 02:12:26;;;;;;;11.80;10.53;;;;;;;;;;5028164;28;20609;-89
2021/08/28 02:14:52;;;;;;;14.33;11.73;;;;;;;;;;5014106;28;20355;-88
2021/08/28 02:17:19;;;;;;;12.03;10.73;;;;;;;;;;5013642;28;20195;-88
2021/08/28 02:19:47;;;;;;;13.13;11.17;;;;;;;;;;5013287;28;20205;-89
2021/08/28 02:22:20;;;;;;;13.33;11.93;;;;;;;;;;5016086;28;20196;-89
2021/08/28 02:24:47;;;;;;;14.63;12.30;;;;;;;;;;5014377;28;20647;-89
2021/08/28 02:27:16;;;;;;;16.40;12.53;;;;;;;;;;5014818;28;20630;-89
2021/08/28 02:30:01;;;;;;;14.73;12.40;;;;;;;;;;5017859;28;20186;-89
2021/08/28 02:32:27;;;;;;;15.77;13.13;;;;;;;;;;5025748;28;20174;-89
2021/08/28 02:34:55;;;;;;;15.43;11.97;;;;;;;;;;5015016;28;20186;-89
2021/08/28 02:37:22;;;;;;;13.93;12.43;;;;;;;;;;5016041;28;20190;-89
2021/08/28 02:39:48;;;;;;;14.23;12.80;;;;;;;;;;5017154;28;20283;-89
2021/08/28 02:42:15;;;;;;;17.33;14.23;;;;;;;;;;5032211;28;20182;-89
2021/08/28 02:44:43;;;;;;;15.27;13.73;;;;;;;;;;5019552;28;20493;-89
2021/08/28 02:47:09;;;;;;;17.07;14.50;;;;;;;;;;5019165;28;20279;-89
2021/08/28 02:49:37;;;;;;;14.97;13.47;;;;;;;;;;5018291;28;20668;-89
2021/08/28 02:52:05;;;;;;;17.43;14.77;;;;;;;;;;5035812;28;20411;-89
2021/08/28 02:54:32;;;;;;;17.83;15.70;;;;;;;;;;5036337;28;20187;-89
2021/08/28 02:56:59;;;;;;;18.20;15.50;;;;;;;;;;5016464;28;20191;-89
2021/08/28 02:59:25;;;;;;;16.20;14.50;;;;;;;;;;5015015;28;20227;-89
2021/08/28 03:01:52;;;;;;;18.17;15.30;;;;;;;;;;5016235;28;20182;-89
2021/08/28 03:04:19;;;;;;;19.63;16.53;;;;;;;;;;5015331;28;20432;-89
2021/08/28 03:06:46;;;;;;;18.57;16.50;;;;;;;;;;5016155;28;20190;-89
2021/08/28 03:09:13;;;;;;;19.73;16.10;;;;;;;;;;5014163;28;20188;-88
2021/08/28 03:11:39;;;;;;;18.53;16.33;;;;;;;;;;5016444;28;20213;-89
2021/08/28 03:14:05;;;;;;;19.53;17.17;;;;;;;;;;5016414;28;20174;-89
2021/08/28 03:16:31;;;;;;;23.87;21.70;;;;;;;;;;5016019;28;20268;-89
2021/08/28 03:18:58;;;;;;;19.03;16.97;;;;;;;;;;5016905;28;20229;-88
2021/08/28 03:21:25;;;;;;;18.53;16.57;;;;;;;;;;5033578;28;20215;-89
2021/08/28 03:23:52;;;;;;;18.97;15.70;;;;;;;;;;5015612;28;20182;-89
2021/08/28 03:26:20;;;;;;;19.70;17.50;;;;;;;;;;5015977;28;20174;-88
2021/08/28 03:28:46;;;;;;;23.83;17.83;;;;;;;;;;5016518;28;20178;-89
2021/08/28 03:31:12;;;;;;;22.10;18.90;;;;;;;;;;5025192;28;20192;-89
2021/08/28 03:33:39;;;;;;;20.13;18.17;;;;;;;;;;5016174;28;20206;-89
2021/08/28 03:36:05;;;;;;;22.70;18.00;;;;;;;;;;5033405;28;20532;-89
2021/08/28 03:38:31;;;;;;;18.40;16.40;;;;;;;;;;5016109;28;20201;-88
2021/08/28 03:40:57;;;;;;;19.67;16.50;;;;;;;;;;5028814;28;20185;-89
2021/08/28 03:43:23;;;;;;;22.57;16.83;;;;;;;;;;5021670;28;20186;-88
2021/08/28 03:45:50;;;;;;;20.90;17.60;;;;;;;;;;5024101;28;20710;-88
2021/08/28 03:48:17;;;;;;;19.60;15.63;;;;;;;;;;5034436;28;20178;-89
2021/08/28 03:50:43;;;;;;;21.53;17.53;;;;;;;;;;5014944;28;20934;-88
2021/08/28 03:53:09;;;;;;;18.77;16.50;;;;;;;;;;5016203;28;20231;-89
2021/08/28 03:55:35;;;;;;;19.10;16.30;;;;;;;;;;5015662;28;20185;-88
2021/08/28 03:58:01;;;;;;;19.57;17.57;;;;;;;;;;5016618;28;20760;-89
2021/08/28 04:00:28;;;;;;;19.57;16.30;;;;;;;;;;5024255;28;20613;-88
2021/08/28 04:02:54;;;;;;;18.63;16.23;;;;;;;;;;5003699;28;20206;-88
2021/08/28 04:05:20;;;;;;;20.87;18.73;;;;;;;;;;5007309;28;20178;-88
2021/08/28 04:07:46;;;;;;;17.13;15.37;;;;;;;;;;4997316;28;20202;-88
2021/08/28 04:10:13;;;;;;;18.83;16.83;;;;;;;;;;5012548;28;20191;-88
2021/08/28 04:12:39;;;;;;;18.63;16.33;;;;;;;;;;5020974;28;20178;-88
2021/08/28 04:15:06;;;;;;;20.23;15.07;;;;;;;;;;5014884;28;20283;-88
2021/08/28 04:17:32;;;;;;;18.70;16.30;;;;;;;;;;5015118;28;20186;-88
2021/08/28 04:19:58;;;;;;;18.63;15.47;;;;;;;;;;5014115;28;20209;-88
2021/08/28 04:22:24;;;;;;;16.80;14.47;;;;;;;;;;5015891;28;20197;-89
2021/08/28 04:24:50;;;;;;;19.40;14.67;;;;;;;;;;5016098;28;20194;-88
2021/08/28 04:27:16;;;;;;;18.63;16.73;;;;;;;;;;5016100;28;20273;-88
2021/08/28 04:29:42;;;;;;;17.43;15.50;;;;;;;;;;5015997;28;20181;-89
2021/08/28 04:32:08;;;;;;;17.07;13.80;;;;;;;;;;5015734;28;20549;-89
2021/08/28 04:34:34;;;;;;;16.50;13.37;;;;;;;;;;5012252;28;20188;-88
2021/08/28 04:37:00;;;;;;;14.17;12.63;;;;;;;;;;5014475;28;20186;-88
2021/08/28 04:39:26;;;;;;;17.07;13.40;;;;;;;;;;5014069;28;20214;-88
2021/08/28 04:41:52;;;;;;;15.37;12.27;;;;;;;;;;5014365;28;20182;-88
2021/08/28 04:44:18;;;;;;;16.60;12.33;;;;;;;;;;5032467;28;20239;-88
2021/08/28 04:46:44;;;;;;;14.57;12.27;;;;;;;;;;5015121;28;20182;-88
2021/08/28 04:49:11;;;;;;;14.40;11.37;;;;;;;;;;5033000;28;20182;-89
2021/08/28 04:51:37;;;;;;;13.60;11.27;;;;;;;;;;5014169;28;20727;-89
2021/08/28 04:54:03;;;;;;;10.93;9.57;;;;;;;;;;5014423;28;20636;-88
2021/08/28 04:56:29;;;;;;;11.10;9.90;;;;;;;;;;5031236;28;20217;-88
2021/08/28 04:58:55;;;;;;;9.83;8.83;;;;;;;;;;5025989;28;20226;-88
2021/08/28 05:01:21;;;;;;;10.47;9.37;;;;;;;;;;5012538;28;20188;-89
2021/08/28 05:03:47;;;;;;;10.73;8.50;;;;;;;;;;5030651;28;20265;-89
2021/08/28 05:06:14;;;;;;;8.77;7.87;;;;;;;;;;5013578;28;20211;-88
2021/08/28 05:08:39;;;;;;;10.10;8.53;;;;;;;;;;5030266;28;20923;-88
2021/08/28 05:11:06;;;;;;;8.70;7.80;;;;;;;;;;5030618;28;20236;-89
2021/08/28 05:13:32;;;;;;;7.80;7.10;;;;;;;;;;5017238;28;20213;-89
2021/08/28 05:15:58;;;;;;;8.43;6.90;;;;;;;;;;5029243;28;20185;-89
2021/08/28 05:18:24;;;;;;;8.60;7.70;;;;;;;;;;5013768;28;20217;-89
2021/08/28 05:20:50;;;;;;;8.13;7.30;;;;;;;;;;5011205;28;20178;-88
2021/08/28 05:23:16;;;;;;;8.50;7.27;;;;;;;;;;5013841;28;20182;-88
2021/08/28 05:25:42;;;;;;;7.73;6.90;;;;;;;;;;5012952;28;20300;-89
2021/08/28 05:28:08;;;;;;;7.60;6.83;;;;;;;;;;5013368;28;20186;-89
2021/08/28 05:30:34;;;;;;;7.17;6.47;;;;;;;;;;5012876;28;20178;-89
2021/08/28 05:33:00;;;;;;;7.93;7.23;;;;;;;;;;5014924;28;20185;-88
2021/08/28 05:35:26;;;;;;;6.87;6.20;;;;;;;;;;5013023;28;20185;-89
2021/08/28 05:37:52;;;;;;;8.03;6.97;;;;;;;;;;5031938;28;20213;-90
2021/08/28 05:40:20;;;;;;;6.57;5.83;;;;;;;;;;5030142;28;20236;-86
2021/08/28 05:42:46;;;;;;;8.87;6.40;;;;;;;;;;5014183;28;20178;-89
2021/08/28 05:45:12;;;;;;;8.40;6.87;;;;;;;;;;5016430;28;20177;-89
2021/08/28 05:47:38;;;;;;;8.50;6.77;;;;;;;;;;5031049;28;20175;-88
2021/08/28 05:50:05;;;;;;;7.70;6.53;;;;;;;;;;5029051;28;20453;-89
2021/08/28 05:52:31;;;;;;;6.37;5.73;;;;;;;;;;5031429;28;20204;-89
2021/08/28 05:54:57;;;;;;;6.30;5.77;;;;;;;;;;5012767;28;20625;-89
2021/08/28 05:57:23;;;;;;;6.77;6.13;;;;;;;;;;5013627;28;20193;-89
2021/08/28 05:59:49;;;;;;;6.23;5.63;;;;;;;;;;5013459;28;20232;-89
2021/08/28 06:02:15;;;;;;;6.27;5.67;;;;;;;;;;5032286;28;20190;-89
2021/08/28 06:04:42;;;;;;;9.03;5.63;;;;;;;;;;5012925;28;20201;-88
2021/08/28 06:07:08;;;;;;;7.63;6.10;;;;;;;;;;5017430;28;20289;-88
2021/08/28 06:09:34;;;;;;;6.57;5.53;;;;;;;;;;5019119;28;20248;-89
2021/08/28 06:12:00;;;;;;;7.30;6.10;;;;;;;;;;5017945;28;20174;-89
2021/08/28 06:14:27;;;;;;;7.00;6.00;;;;;;;;;;5018028;28;20179;-89
2021/08/28 06:16:53;;;;;;;7.27;5.33;;;;;;;;;;5018330;28;20179;-88
2021/08/28 06:19:20;;;;;;;6.57;5.43;;;;;;;;;;5016051;28;20344;-88
2021/08/28 06:21:46;;;;;;;6.47;5.37;;;;;;;;;;5037385;28;20174;-89
2021/08/28 06:24:12;;;;;;;7.67;5.80;;;;;;;;;;5017901;28;20181;-89
2021/08/28 06:26:38;;;;;;;9.27;6.10;;;;;;;;;;5002803;28;20228;-88
2021/08/28 06:29:05;;;;;;;7.87;6.57;;;;;;;;;;5017638;28;20186;-88
2021/08/28 06:31:31;;;;;;;8.17;6.97;;;;;;;;;;5016833;28;20702;-89
2021/08/28 06:33:57;;;;;;;9.13;7.53;;;;;;;;;;5015885;28;20642;-87
2021/08/28 06:36:23;;;;;;;7.47;6.60;;;;;;;;;;5014707;28;20189;-87
2021/08/28 06:38:49;;;;;;;7.77;6.97;;;;;;;;;;5017435;28;20243;-87
2021/08/28 06:41:15;;;;;;;10.17;7.90;;;;;;;;;;5017055;28;20175;-86
2021/08/28 06:43:41;;;;;;;9.63;8.63;;;;;;;;;;5017303;28;20177;-86
2021/08/28 06:46:07;;;;;;;10.57;7.07;;;;;;;;;;5016131;28;20276;-86
2021/08/28 06:48:34;;;;;;;9.33;7.20;;;;;;;;;;5017336;28;20632;-86
2021/08/28 06:51:00;;;;;;;8.40;6.83;;;;;;;;;;5017091;28;20180;-85
2021/08/28 06:53:26;;;;;;;6.63;6.03;;;;;;;;;;5018746;28;20188;-86
2021/08/28 06:55:52;;;;;;;10.30;6.63;;;;;;;;;;5015652;28;20216;-85
2021/08/28 06:58:18;;;;;;;8.10;6.60;;;;;;;;;;5002013;28;20212;-86
2021/08/28 07:00:44;;;;;;;7.83;5.73;;;;;;;;;;5016951;28;20220;-87
2021/08/28 07:03:10;;;;;;;7.33;6.30;;;;;;;;;;5018246;28;20608;-85
2021/08/28 07:05:36;;;;;;;7.83;5.70;;;;;;;;;;5018681;28;20181;-85
2021/08/28 07:08:02;;;;;;;6.97;5.57;;;;;;;;;;5041691;28;20194;-85
2021/08/28 07:10:29;;;;;;;9.17;5.97;;;;;;;;;;5019456;28;20493;-85
2021/08/28 07:12:55;;;;;;;6.93;5.50;;;;;;;;;;5010083;28;20281;-85
2021/08/28 07:15:21;;;;;;;7.77;5.83;;;;;;;;;;5017147;28;20255;-85
2021/08/28 07:17:47;;;;;;;9.20;5.87;;;;;;;;;;5015654;28;20558;-85
2021/08/28 07:20:13;;;;;;;8.93;6.47;;;;;;;;;;5015724;28;20653;-85
2021/08/28 07:22:39;;;;;;;7.80;5.73;;;;;;;;;;5031948;28;20562;-85
2021/08/28 07:25:06;;;;;;;6.60;5.90;;;;;;;;;;5013507;28;20182;-85
2021/08/28 07:27:32;;;;;;;7.05;6.35;;;;;;;;;;5015652;28;20500;-85
2021/08/28 07:29:58;;;;;;;8.77;5.70;;;;;;;;;;5015842;28;20242;-85
2021/08/28 07:32:25;;;;;;;8.87;6.07;;;;;;;;;;5015929;28;20676;-85
2021/08/28 07:34:54;;;;;;;6.80;6.10;;;;;;;;;;5016229;28;20196;-85
2021/08/28 07:37:21;;;;;;;8.37;5.83;;;;;;;;;;5017026;28;20544;-85
2021/08/28 07:39:47;;;;;;;7.13;5.60;;;;;;;;;;5015854;28;20616;-85
2021/08/28 07:42:14;;;;;;;7.17;5.97;;;;;;;;;;5033655;28;20209;-84
2021/08/28 07:44:40;;;;;;;8.70;6.20;;;;;;;;;;5015000;28;20248;-86
2021/08/28 07:47:06;;;;;;;7.13;5.83;;;;;;;;;;5016746;28;20170;-85
2021/08/28 07:49:32;;;;;;;7.67;6.00;;;;;;;;;;5016151;28;20181;-84
2021/08/28 07:51:58;;;;;;;6.13;5.53;;;;;;;;;;5033522;28;20599;-84
2021/08/28 07:54:24;;;;;;;8.97;6.67;;;;;;;;;;5021333;28;20189;-85
2021/08/28 07:56:50;;;;;;;6.90;6.20;;;;;;;;;;5033537;28;20174;-84
2021/08/28 07:59:16;;;;;;;8.37;5.80;;;;;;;;;;5014507;28;20225;-84
2021/08/28 08:01:42;;;;;;;9.30;6.17;;;;;;;;;;5018118;28;20594;-84
2021/08/28 08:04:08;;;;;;;9.20;5.20;;;;;;;;;;5017793;28;20170;-83
2021/08/28 08:06:34;;;;;;;8.30;5.90;;;;;;;;;;5015764;28;20278;-85
2021/08/28 08:09:01;;;;;;;7.67;5.27;;;;;;;;;;5035436;28;20170;-85
2021/08/28 08:11:27;;;;;;;7.10;6.33;;;;;;;;;;5017882;28;20300;-86
2021/08/28 08:13:53;;;;;;;6.47;5.57;;;;;;;;;;5021943;28;20249;-89
2021/08/28 08:16:19;;;;;;;10.00;5.67;;;;;;;;;;5037005;28;20704;-90
2021/08/28 08:18:45;;;;;;;8.17;6.23;;;;;;;;;;5051912;28;20313;-90
2021/08/28 08:21:11;;;;;;;9.23;5.97;;;;;;;;;;5040775;28;20575;-89
2021/08/28 08:23:37;;;;;;;9.90;6.43;;;;;;;;;;5018906;28;20189;-82
2021/08/28 08:26:03;;;;;;;8.27;5.57;;;;;;;;;;5032563;28;20178;-85
2021/08/28 08:28:29;;;;;;;8.10;5.00;;;;;;;;;;5017132;28;20182;-85
2021/08/28 08:30:55;;;;;;;5.50;5.00;;;;;;;;;;5017165;28;20207;-86
2021/08/28 08:33:21;;;;;;;6.00;5.40;;;;;;;;;;5034891;28;20188;-85
2021/08/28 08:35:47;;;;;;;6.50;5.47;;;;;;;;;;5029026;28;20171;-86
2021/08/28 08:38:13;;;;;;;7.60;5.50;;;;;;;;;;5015171;28;20179;-85
2021/08/28 08:40:39;;;;;;;6.87;5.47;;;;;;;;;;5016500;28;20189;-85
2021/08/28 08:43:07;;;;;;;7.13;5.87;;;;;;;;;;5017593;28;20187;-85
2021/08/28 08:45:34;;;;;;;8.20;5.80;;;;;;;;;;5036890;28;20208;-85
2021/08/28 08:48:01;;;;;;;8.27;5.40;;;;;;;;;;5021229;28;20193;-84
2021/08/28 08:50:29;;;;;;;7.23;5.00;;;;;;;;;;5013775;28;20205;-86
2021/08/28 08:52:56;;;;;;;5.93;5.03;;;;;;;;;;5031485;28;20272;-87
2021/08/28 08:55:22;;;;;;;6.93;5.33;;;;;;;;;;5028484;28;20194;-84
2021/08/28 08:57:48;;;;;;;5.03;4.20;;;;;;;;;;5013723;28;20174;-84
2021/08/28 09:00:15;;;;;;;5.63;5.00;;;;;;;;;;5012688;28;20323;-85
2021/08/28 09:02:41;;;;;;;7.20;5.83;;;;;;;;;;5010777;28;20189;-86
2021/08/28 09:05:07;;;;;;;5.07;4.57;;;;;;;;;;5029227;28;20176;-84
2021/08/28 09:07:33;;;;;;;5.97;5.30;;;;;;;;;;5029608;28;20192;-84
2021/08/28 09:09:59;;;;;;;6.43;5.57;;;;;;;;;;5030722;28;20188;-84
2021/08/28 09:12:38;;;;;;;5.73;5.20;;;;;;;;;;5023643;28;20175;-84
2021/08/28 09:15:07;;;;;;;6.70;5.17;;;;;;;;;;5025227;28;20242;-84
2021/08/28 09:17:33;;;;;;;5.57;4.83;;;;;;;;;;5013450;28;20222;-84
2021/08/28 09:20:01;;;;;;;5.97;5.37;;;;;;;;;;5019137;28;20212;-85
2021/08/28 09:22:31;;;;;;;5.40;4.90;;;;;;;;;;5036628;28;20196;-84
2021/08/28 09:24:58;;;;;;;6.40;5.07;;;;;;;;;;5019970;28;20315;-84
2021/08/28 09:27:35;;;;;;;6.13;4.73;;;;;;;;;;5029543;28;20173;-84
2021/08/28 09:30:02;;;;;;;5.47;4.93;;;;;;;;;;5030893;28;20264;-84
2021/08/28 09:32:28;;;;;;;5.27;4.77;;;;;;;;;;5024704;28;20207;-85
2021/08/28 09:34:54;;;;;;;6.03;5.40;;;;;;;;;;5007541;28;20249;-84
2021/08/28 09:37:30;;;;;;;6.80;4.30;;;;;;;;;;5032846;28;20218;-84
2021/08/28 09:40:00;;;;;;;5.10;4.60;;;;;;;;;;5013855;28;20267;-85
2021/08/28 09:42:26;;;;;;;5.87;4.40;;;;;;;;;;5032605;28;20166;-85
2021/08/28 09:44:52;;;;;;;5.82;5.03;;;;;;;;;;5032817;28;20772;-85
2021/08/28 09:47:23;;;;;;;6.53;4.80;;;;;;;;;;5051700;28;20274;-85
2021/08/28 09:49:50;;;;;;;4.77;4.30;;;;;;;;;;5050654;28;20190;-85
2021/08/28 09:52:17;;;;;;;5.50;4.60;;;;;;;;;;5025603;28;20191;-85
2021/08/28 09:54:43;;;;;;;5.67;4.90;;;;;;;;;;5007462;28;20670;-85
2021/08/28 09:57:09;;;;;;;6.70;4.73;;;;;;;;;;5034537;28;20178;-85
2021/08/28 09:59:36;;;;;;;5.60;4.33;;;;;;;;;;5017021;28;20223;-86
2021/08/28 10:02:03;;;;;;;4.27;3.63;;;;;;;;;;5016070;28;20247;-86
2021/08/28 10:04:29;;;;;;;4.53;4.10;;;;;;;;;;5014763;28;20201;-85
2021/08/28 10:06:56;;;;;;;4.87;4.30;;;;;;;;;;5016357;28;20513;-85
2021/08/28 10:09:22;;;;;;;5.63;4.30;;;;;;;;;;5017465;28;20648;-85
2021/08/28 10:11:52;;;;;;;5.13;4.17;;;;;;;;;;5049363;28;20201;-85
2021/08/28 10:14:19;;;;;;;4.37;3.97;;;;;;;;;;5039201;28;20178;-85
2021/08/28 10:16:46;;;;;;;4.47;4.07;;;;;;;;;;5034495;28;20296;-85
2021/08/28 10:19:16;;;;;;;5.07;4.33;;;;;;;;;;5015930;28;20206;-85
2021/08/28 10:21:46;;;;;;;4.50;4.10;;;;;;;;;;5022823;28;20178;-85
2021/08/28 10:24:15;;;;;;;5.57;4.40;;;;;;;;;;5014181;28;20237;-85
2021/08/28 10:26:42;;;;;;;3.87;3.40;;;;;;;;;;5021163;28;20168;-85
2021/08/28 10:29:09;;;;;;;5.27;4.10;;;;;;;;;;5015436;28;20201;-86
2021/08/28 10:31:35;;;;;;;4.13;3.73;;;;;;;;;;5032274;28;20282;-85
2021/08/28 10:34:01;;;;;;;4.13;3.73;;;;;;;;;;5016766;28;20682;-85
2021/08/28 10:36:27;;;;;;;4.20;3.90;;;;;;;;;;5031200;28;20186;-86
2021/08/28 10:38:54;;;;;;;5.32;4.82;;;;;;;;;;5015820;28;20448;-85
2021/08/28 10:41:20;;;;;;;4.50;4.10;;;;;;;;;;5015323;28;20177;-85
2021/08/28 10:43:46;;;;;;;4.80;4.40;;;;;;;;;;5016032;28;20174;-85
2021/08/28 10:46:20;;;;;;;4.53;4.13;;;;;;;;;;5015733;28;20182;-85
2021/08/28 10:48:53;;;;;;;5.40;3.83;;;;;;;;;;5014616;28;20178;-85
2021/08/28 10:51:35;;;;;;;4.07;3.77;;;;;;;;;;5012505;28;20639;-84
2021/08/28 10:54:06;;;;;;;5.80;3.77;;;;;;;;;;5018442;28;20594;-84
2021/08/28 10:56:36;;;;;;;4.40;3.50;;;;;;;;;;5008101;28;20205;-85
2021/08/28 10:59:22;;;;;;;3.90;3.50;;;;;;;;;;5018024;28;20316;-85
2021/08/28 11:02:01;;;;;;;4.43;3.73;;;;;;;;;;5015402;28;20268;-85
2021/08/28 11:04:38;;;;;;;3.93;3.07;;;;;;;;;;5027678;28;20197;-85
2021/08/28 11:07:17;;;;;;;4.90;3.87;;;;;;;;;;5034547;28;20247;-85
2021/08/28 11:10:02;;;;;;;3.80;3.47;;;;;;;;;;5015762;28;20605;-85
2021/08/28 11:12:28;;;;;;;4.57;3.30;;;;;;;;;;5034012;28;20182;-85
2021/08/28 11:14:54;;;;;;;4.47;3.70;;;;;;;;;;5018972;28;20218;-84
2021/08/28 11:17:39;;;;;;;4.23;3.83;;;;;;;;;;5026445;28;20562;-84
2021/08/28 11:20:05;;;;;;;4.10;3.70;;;;;;;;;;5014368;28;20229;-85
2021/08/28 11:22:37;;;;;;;3.77;3.10;;;;;;;;;;5031559;28;20217;-84
2021/08/28 11:25:05;;;;;;;4.63;3.53;;;;;;;;;;5014401;28;20178;-84
2021/08/28 11:27:39;;;;;;;3.50;3.20;;;;;;;;;;5016322;28;20586;-84
2021/08/28 11:30:06;;;;;;;3.60;3.30;;;;;;;;;;5016328;28;20243;-84
2021/08/28 11:32:32;;;;;;;3.53;3.23;;;;;;;;;;5016835;28;20182;-84
2021/08/28 11:34:59;;;;;;;3.23;2.93;;;;;;;;;;5019883;28;20184;-84
2021/08/28 11:37:31;;;;;;;3.47;3.00;;;;;;;;;;5022107;28;20680;-83
2021/08/28 11:40:01;;;;;;;3.90;3.60;;;;;;;;;;5022349;28;20288;-86
2021/08/28 11:42:28;;;;;;;3.83;3.53;;;;;;;;;;5016768;28;20186;-85
2021/08/28 11:44:55;;;;;;;4.90;3.30;;;;;;;;;;5016851;28;20212;-83
2021/08/28 11:47:21;;;;;;;4.43;4.03;;;;;;;;;;5018011;28;20587;-85
2021/08/28 11:50:00;;;;;;;4.97;3.87;;;;;;;;;;5019598;28;20230;-83
2021/08/28 11:52:26;;;;;;;3.87;3.40;;;;;;;;;;5030734;28;20189;-83
2021/08/28 11:54:52;;;;;;;3.43;2.93;;;;;;;;;;5036497;28;20182;-83
2021/08/28 11:57:21;;;;;;;4.73;4.33;;;;;;;;;;5036455;28;20209;-83
2021/08/28 11:59:48;;;;;;;6.40;5.93;;;;;;;;;;5012576;28;20264;-86
2021/08/28 12:02:14;;;;;;;5.20;4.70;;;;;;;;;;5015977;28;20181;-84
2021/08/28 12:04:40;;;;;;;4.37;3.33;;;;;;;;;;5004512;28;20186;-84
2021/08/28 12:07:06;;;;;;;4.23;3.10;;;;;;;;;;5023557;28;20199;-83
2021/08/28 12:09:33;;;;;;;4.40;3.83;;;;;;;;;;5005290;28;20197;-83
2021/08/28 12:12:00;;;;;;;5.47;3.40;;;;;;;;;;5005576;28;20684;-84
2021/08/28 12:14:27;;;;;;;3.00;2.80;;;;;;;;;;5025534;28;20187;-84
2021/08/28 12:16:53;;;;;;;6.73;3.80;;;;;;;;;;5003727;28;20182;-84
2021/08/28 12:19:20;;;;;;;3.40;3.10;;;;;;;;;;5019758;28;20611;-83
2021/08/28 12:21:49;;;;;;;3.47;3.17;;;;;;;;;;5034104;28;20174;-83
2021/08/28 12:24:23;;;;;;;5.13;3.83;;;;;;;;;;5030575;28;20812;-83
2021/08/28 12:26:50;;;;;;;3.87;3.53;;;;;;;;;;4998266;28;20193;-84
2021/08/28 12:29:27;;;;;;;3.60;3.30;;;;;;;;;;4996656;28;20186;-84
2021/08/28 12:32:02;;;;;;;4.27;3.13;;;;;;;;;;4996821;28;20200;-84
2021/08/28 12:34:30;;;;;;;3.63;3.33;;;;;;;;;;4997111;28;20249;-84
2021/08/28 12:36:57;;;;;;;5.27;3.17;;;;;;;;;;4997201;28;20561;-83
2021/08/28 12:39:23;;;;;;;3.87;3.50;;;;;;;;;;4996536;28;20233;-84
2021/08/28 12:41:49;;;;;;;3.57;3.27;;;;;;;;;;4997601;28;20869;-84
2021/08/28 12:44:16;;;;;;;3.77;3.27;;;;;;;;;;4996232;28;20174;-84
2021/08/28 12:46:45;;;;;;;3.93;3.53;;;;;;;;;;5022102;28;20273;-84
2021/08/28 12:49:13;;;;;;;3.73;3.43;;;;;;;;;;5025482;28;20178;-83
2021/08/28 12:51:55;;;;;;;4.50;3.50;;;;;;;;;;5013189;28;20593;-84
2021/08/28 12:54:22;;;;;;;3.27;3.03;;;;;;;;;;5014092;28;20191;-84
2021/08/28 12:56:49;;;;;;;3.27;3.07;;;;;;;;;;4997005;28;20618;-83
2021/08/28 12:59:20;;;;;;;3.83;3.10;;;;;;;;;;4999622;28;20258;-83
2021/08/28 13:01:54;;;;;;;3.43;3.13;;;;;;;;;;4999016;28;20188;-84
2021/08/28 13:04:20;;;;;;;3.30;3.00;;;;;;;;;;4997046;28;20181;-84
2021/08/28 13:07:11;;;;;;;3.17;2.87;;;;;;;;;;5024548;28;20198;-84
2021/08/28 13:09:51;;;;;;;2.87;2.63;;;;;;;;;;4999206;28;20641;-86
2021/08/28 13:12:17;;;;;;;3.60;2.70;;;;;;;;;;5013394;28;20189;-87
2021/08/28 13:14:53;;;;;;;2.30;2.20;;;;;;;;;;5010370;28;20178;-85
2021/08/28 13:17:23;;;;;;;4.90;2.23;;;;;;;;;;4993549;28;20185;-86
2021/08/28 13:19:58;;;;;;;3.03;1.90;;;;;;;;;;4992798;28;20206;-86
2021/08/28 13:22:24;;;;;;;2.37;2.10;;;;;;;;;;4994220;28;20187;-87
2021/08/28 13:24:50;;;;;;;2.20;2.00;;;;;;;;;;4992661;28;20190;-86
2021/08/28 13:27:16;;;;;;;1.97;1.80;;;;;;;;;;4998673;28;20182;-86
2021/08/28 13:29:42;;;;;;;1.97;1.77;;;;;;;;;;4992759;28;20241;-85
2021/08/28 13:32:10;;;;;;;3.13;1.97;;;;;;;;;;5013282;28;20186;-86
2021/08/28 13:34:40;;;;;;;1.73;1.60;;;;;;;;;;4995998;28;20643;-85
2021/08/28 13:37:08;;;;;;;3.63;2.23;;;;;;;;;;5013674;28;20174;-85
2021/08/28 13:39:34;;;;;;;2.10;2.00;;;;;;;;;;5011846;28;20221;-86
2021/08/28 13:42:01;;;;;;;1.93;1.83;;;;;;;;;;4996785;28;20170;-85
2021/08/28 13:44:27;;;;;;;1.80;1.70;;;;;;;;;;5012044;28;20789;-85
2021/08/28 13:46:53;;;;;;;1.80;1.70;;;;;;;;;;4996593;28;20179;-85
2021/08/28 13:49:19;;;;;;;2.03;1.60;;;;;;;;;;5013818;28;20206;-85
2021/08/28 13:51:45;;;;;;;2.20;1.73;;;;;;;;;;4992635;28;20208;-85
2021/08/28 13:54:11;;;;;;;1.73;1.63;;;;;;;;;;4999768;28;20186;-85
2021/08/28 13:56:37;;;;;;;1.70;1.60;;;;;;;;;;5006736;28;20545;-85
2021/08/28 13:59:03;;;;;;;2.00;1.77;;;;;;;;;;4999797;28;20229;-85
2021/08/28 14:01:29;;;;;;;1.90;1.80;;;;;;;;;;5016378;28;20170;-85
2021/08/28 14:03:55;;;;;;;1.97;1.87;;;;;;;;;;5016179;28;20165;-85
2021/08/28 14:06:21;;;;;;;2.07;1.97;;;;;;;;;;5018515;28;20216;-85
2021/08/28 14:08:47;;;;;;;2.40;2.13;;;;;;;;;;5021454;28;20540;-86
2021/08/28 14:11:13;;;;;;;1.90;1.80;;;;;;;;;;5033537;28;20410;-86
2021/08/28 14:13:39;;;;;;;1.83;1.73;;;;;;;;;;5016358;28;20629;-86
2021/08/28 14:16:05;;;;;;;2.27;2.07;;;;;;;;;;5016447;28;20178;-85
2021/08/28 14:18:31;;;;;;;1.90;1.80;;;;;;;;;;5016709;28;20184;-85
2021/08/28 14:20:57;;;;;;;2.20;2.10;;;;;;;;;;5017524;28;20170;-86
2021/08/28 14:23:23;;;;;;;3.23;2.90;;;;;;;;;;5016097;28;20188;-88
2021/08/28 14:25:49;;;;;;;2.57;2.00;;;;;;;;;;5026981;28;20178;-86
2021/08/28 14:28:16;;;;;;;2.50;2.30;;;;;;;;;;5033984;28;20605;-85
2021/08/28 14:30:42;;;;;;;2.13;2.00;;;;;;;;;;5025742;28;20188;-85
2021/08/28 14:33:08;;;;;;;2.40;1.90;;;;;;;;;;5019147;28;20514;-85
2021/08/28 14:35:34;;;;;;;2.13;2.00;;;;;;;;;;5035980;28;20250;-85
2021/08/28 14:38:00;;;;;;;2.10;1.90;;;;;;;;;;5035721;28;20181;-85
2021/08/28 14:40:26;;;;;;;2.20;2.00;;;;;;;;;;5035607;28;20209;-87